Time;durP1;ratioP1;P1;durP2;ratioP2;P2;SDS_P1;SDS_P2;PMS_P1;PMS_P2;Temp;Humidity;BMP_temperature;BMP_pressure;BME280_temperature;BME280_humidity;BME280_pressure;Samples;Min_cycle;Max_cycle;Signal;HPM_P1;HPM_P2
2023/10/29 00:00:32;;;;;;;;;;;;;;;20.62;30.06;97691.41;5038635;28;935;-78
2023/10/29 00:02:57;;;;;;;;;;;;;;;20.69;30.00;97685.59;5056329;28;860;-77
2023/10/29 00:05:23;;;;;;;;;;;;;;;20.54;30.43;97684.38;5056514;28;930;-77
2023/10/29 00:07:49;;;;;;;;;;;;;;;20.72;30.21;97693.16;5039100;28;841;-78
2023/10/29 00:10:16;;;;;;;;;;;;;;;20.55;30.62;97685.97;5056215;28;1142;-77
2023/10/29 00:12:41;;;;;;;;;;;;;;;20.42;30.84;97687.94;5038337;28;901;-77
2023/10/29 00:15:07;;;;;;;;;;;;;;;20.49;31.11;97682.09;5056303;28;1974;-77
2023/10/29 00:17:33;;;;;;;;;;;;;;;20.79;30.56;97683.69;5038573;28;1033;-77
2023/10/29 00:19:59;;;;;;;;;;;;;;;20.72;30.47;97684.66;5038934;28;936;-77
2023/10/29 00:22:25;;;;;;;;;;;;;;;20.90;30.20;97689.03;4998438;28;941;-77
2023/10/29 00:24:51;;;;;;;;;;;;;;;20.78;30.38;97694.22;5014142;28;1031;-77
2023/10/29 00:27:16;;;;;;;;;;;;;;;20.84;30.52;97685.19;5014402;28;967;-77
2023/10/29 00:29:42;;;;;;;;;;;;;;;20.76;30.81;97687.41;4981802;28;1139;-77
2023/10/29 00:32:08;;;;;;;;;;;;;;;20.74;30.76;97690.69;5014539;28;974;-78
2023/10/29 00:34:33;;;;;;;;;;;;;;;20.74;30.75;97687.88;4981809;28;1919;-77
2023/10/29 00:36:59;;;;;;;;;;;;;;;20.40;31.25;97696.03;5014531;28;996;-77
2023/10/29 00:39:24;;;;;;;;;;;;;;;20.78;30.92;97688.56;4998124;28;937;-77
2023/10/29 00:41:50;;;;;;;;;;;;;;;20.54;31.06;97684.38;5014363;28;1009;-77
2023/10/29 00:44:15;;;;;;;;;;;;;;;20.84;30.93;97685.19;5014369;28;1204;-77
2023/10/29 00:46:41;;;;;;;;;;;;;;;20.67;30.86;97688.03;5014571;28;1017;-77
2023/10/29 00:49:08;;;;;;;;;;;;;;;20.79;30.83;97690.16;4983410;28;918;-77
2023/10/29 00:51:33;;;;;;;;;;;;;;;20.87;30.57;97692.75;5002328;28;972;-76
2023/10/29 00:53:59;;;;;;;;;;;;;;;20.83;30.65;97692.88;5016419;28;1918;-77
2023/10/29 00:56:24;;;;;;;;;;;;;;;20.90;30.58;97697.53;5021682;28;1040;-77
2023/10/29 00:58:51;;;;;;;;;;;;;;;20.84;30.87;97690.84;5038038;28;994;-77
2023/10/29 01:01:17;;;;;;;;;;;;;;;20.57;31.41;97694.00;5040154;28;889;-78
2023/10/29 01:03:43;;;;;;;;;;;;;;;20.95;30.53;97703.44;5042588;28;912;-77
2023/10/29 01:06:09;;;;;;;;;;;;;;;20.83;30.92;97690.06;5042625;28;880;-77
2023/10/29 01:08:34;;;;;;;;;;;;;;;20.73;30.78;97691.94;5025929;28;1203;-77
2023/10/29 01:11:00;;;;;;;;;;;;;;;20.96;30.66;97698.56;5042368;28;940;-78
2023/10/29 01:13:26;;;;;;;;;;;;;;;21.07;30.47;97693.38;4991987;28;1954;-77
2023/10/29 01:15:51;;;;;;;;;;;;;;;20.92;30.74;97687.34;5059833;28;979;-77
2023/10/29 01:18:17;;;;;;;;;;;;;;;20.84;30.88;97688.00;5060096;28;968;-77
2023/10/29 01:20:42;;;;;;;;;;;;;;;20.83;30.74;97692.06;5025331;28;1115;-77
2023/10/29 01:23:08;;;;;;;;;;;;;;;20.80;30.82;97691.72;5009410;28;1252;-77
2023/10/29 01:25:33;;;;;;;;;;;;;;;21.19;30.31;97701.13;5059751;28;976;-78
2023/10/29 01:27:59;;;;;;;;;;;;;;;21.19;30.11;97706.78;5025759;28;927;-77
2023/10/29 01:30:25;;;;;;;;;;;;;;;20.94;30.43;97707.50;5041486;28;1177;-78
2023/10/29 01:32:51;;;;;;;;;;;;;;;20.77;30.84;97701.09;5025072;28;1286;-77
2023/10/29 01:35:16;;;;;;;;;;;;;;;20.65;31.26;97713.16;5008817;28;1938;-77
2023/10/29 01:37:42;;;;;;;;;;;;;;;20.87;30.66;97712.56;4981779;28;1306;-77
2023/10/29 01:40:08;;;;;;;;;;;;;;;20.83;30.60;97715.50;4965567;28;1128;-77
2023/10/29 01:42:33;;;;;;;;;;;;;;;20.86;30.62;97710.97;4965309;28;947;-77
2023/10/29 01:44:59;;;;;;;;;;;;;;;20.74;31.05;97715.34;4981350;28;1207;-77
2023/10/29 01:47:24;;;;;;;;;;;;;;;20.90;30.50;97722.97;4965315;28;1128;-77
2023/10/29 01:49:50;;;;;;;;;;;;;;;20.92;30.62;97728.97;4981208;28;993;-77
2023/10/29 01:52:15;;;;;;;;;;;;;;;20.76;30.97;97724.97;4981601;28;1000;-77
2023/10/29 01:54:41;;;;;;;;;;;;;;;20.63;30.95;97731.81;4965118;28;1919;-77
2023/10/29 01:57:06;;;;;;;;;;;;;;;20.77;30.79;97732.19;4981498;28;1235;-77
2023/10/29 01:59:33;;;;;;;;;;;;;;;21.00;30.15;97733.22;4981170;28;1603;-78
2023/10/29 02:01:58;;;;;;;;;;;;;;;20.89;30.43;97732.72;4965230;28;1202;-77
2023/10/29 02:04:26;;;;;;;;;;;;;;;20.69;30.50;97742.13;4942577;29;1323;-77
2023/10/29 02:06:54;;;;;;;;;;;;;;;20.88;30.25;97745.25;4943202;29;1085;-77
2023/10/29 02:09:20;;;;;;;;;;;;;;;20.93;30.32;97739.03;4987503;28;897;-77
2023/10/29 02:11:45;;;;;;;;;;;;;;;20.75;30.35;97737.50;4961693;28;1108;-77
2023/10/29 02:14:11;;;;;;;;;;;;;;;20.81;30.17;97738.56;4961474;28;1910;-78
2023/10/29 02:16:36;;;;;;;;;;;;;;;20.93;30.23;97739.03;4961757;28;1114;-77
2023/10/29 02:19:03;;;;;;;;;;;;;;;20.88;30.20;97745.25;4961549;28;931;-77
2023/10/29 02:21:29;;;;;;;;;;;;;;;20.92;30.15;97743.13;4980963;28;1150;-77
2023/10/29 02:23:54;;;;;;;;;;;;;;;20.62;30.44;97753.59;4981061;28;984;-77
2023/10/29 02:26:20;;;;;;;;;;;;;;;21.16;29.83;97750.09;4980961;28;1651;-77
2023/10/29 02:28:46;;;;;;;;;;;;;;;20.78;30.12;97756.44;4981098;28;993;-78
2023/10/29 02:31:20;;;;;;;;;;;;;;;20.78;30.35;97756.44;4980698;28;1239;-77
2023/10/29 02:33:46;;;;;;;;;;;;;;;20.91;30.29;97752.84;4980415;28;1910;-78
2023/10/29 02:36:12;;;;;;;;;;;;;;;20.77;30.13;97749.16;4980643;28;957;-78
2023/10/29 02:38:38;;;;;;;;;;;;;;;21.04;29.82;97756.53;4983840;28;1104;-77
2023/10/29 02:41:06;;;;;;;;;;;;;;;20.90;29.93;97765.41;4980479;28;1408;-78
2023/10/29 02:43:32;;;;;;;;;;;;;;;20.68;30.42;97762.38;4980072;28;996;-77
2023/10/29 02:45:58;;;;;;;;;;;;;;;20.53;30.73;97757.09;4980303;28;1267;-77
2023/10/29 02:48:25;;;;;;;;;;;;;;;20.57;30.81;97765.44;4980649;28;1106;-77
2023/10/29 02:50:52;;;;;;;;;;;;;;;20.56;30.48;97766.69;4980593;28;1024;-78
2023/10/29 02:53:19;;;;;;;;;;;;;;;20.73;30.21;97768.28;4980547;28;2032;-77
2023/10/29 02:55:44;;;;;;;;;;;;;;;20.83;29.92;97768.41;4980320;28;1141;-77
2023/10/29 02:58:12;;;;;;;;;;;;;;;21.00;29.67;97767.16;4980090;28;1397;-77
2023/10/29 03:00:38;;;;;;;;;;;;;;;20.73;30.24;97775.97;4964382;28;1371;-78
2023/10/29 03:03:04;;;;;;;;;;;;;;;20.83;30.03;97783.38;4980190;28;920;-77
2023/10/29 03:05:29;;;;;;;;;;;;;;;20.79;30.33;97786.28;4980301;28;892;-78
2023/10/29 03:07:55;;;;;;;;;;;;;;;20.91;30.01;97781.13;4984023;28;916;-77
2023/10/29 03:10:20;;;;;;;;;;;;;;;20.75;30.19;97785.59;5015663;28;910;-77
2023/10/29 03:12:47;;;;;;;;;;;;;;;20.76;30.01;97787.16;5047486;28;1287;-77
2023/10/29 03:15:13;;;;;;;;;;;;;;;20.78;30.18;97784.69;5057745;28;1906;-77
2023/10/29 03:17:38;;;;;;;;;;;;;;;20.97;29.83;97791.44;5035314;28;1166;-77
2023/10/29 03:20:04;;;;;;;;;;;;;;;20.95;30.06;97793.16;5018837;28;1306;-77
2023/10/29 03:22:30;;;;;;;;;;;;;;;20.94;29.84;97797.22;5018781;28;916;-77
2023/10/29 03:24:55;;;;;;;;;;;;;;;20.87;30.08;97791.75;5002537;28;1144;-77
2023/10/29 03:27:21;;;;;;;;;;;;;;;20.73;30.16;97793.72;5018788;28;1229;-77
2023/10/29 03:29:47;;;;;;;;;;;;;;;20.79;30.24;97791.94;5018738;28;1604;-77
2023/10/29 03:32:12;;;;;;;;;;;;;;;20.84;30.51;97803.97;5035190;28;1557;-77
2023/10/29 03:34:37;;;;;;;;;;;;;;;20.95;30.25;97804.47;5034777;28;1960;-77
2023/10/29 03:37:03;;;;;;;;;;;;;;;20.87;30.38;97805.88;5018463;28;976;-77
2023/10/29 03:39:31;;;;;;;;;;;;;;;21.01;30.24;97808.34;5018534;28;853;-77
2023/10/29 03:41:56;;;;;;;;;;;;;;;20.90;30.24;97819.16;5002371;28;1005;-77
2023/10/29 03:44:22;;;;;;;;;;;;;;;20.91;30.33;97815.06;5001937;28;1159;-77
2023/10/29 03:46:51;;;;;;;;;;;;;;;20.61;30.46;97822.69;4979263;28;1164;-77
2023/10/29 03:49:17;;;;;;;;;;;;;;;20.84;30.08;97833.03;4976066;28;886;-77
2023/10/29 03:51:43;;;;;;;;;;;;;;;20.81;30.47;97829.03;4960500;28;902;-77
2023/10/29 03:54:08;;;;;;;;;;;;;;;20.95;30.00;97827.88;4995346;28;1967;-78
2023/10/29 03:56:34;;;;;;;;;;;;;;;20.96;30.22;97828.66;4995700;28;1073;-78
2023/10/29 03:59:00;;;;;;;;;;;;;;;20.78;30.65;97835.59;4956096;28;1017;-78
2023/10/29 04:01:26;;;;;;;;;;;;;;;20.78;30.51;97829.94;4956272;29;1385;-77
2023/10/29 04:03:52;;;;;;;;;;;;;;;20.82;30.47;97835.50;4924634;29;1353;-78
2023/10/29 04:06:17;;;;;;;;;;;;;;;20.90;30.53;97841.78;4940064;28;1097;-78
2023/10/29 04:08:43;;;;;;;;;;;;;;;20.87;30.24;97845.47;4940149;29;1010;-78
2023/10/29 04:11:09;;;;;;;;;;;;;;;21.07;30.03;97835.63;4940270;28;934;-78
2023/10/29 04:13:34;;;;;;;;;;;;;;;20.96;30.25;97845.63;4939374;29;1975;-77
2023/10/29 04:16:00;;;;;;;;;;;;;;;20.62;30.51;97848.94;4907943;29;970;-78
2023/10/29 04:18:31;;;;;;;;;;;;;;;20.92;30.37;97850.59;4954698;28;951;-78
2023/10/29 04:20:56;;;;;;;;;;;;;;;20.67;30.64;97852.03;4975037;28;1062;-78
2023/10/29 04:23:22;;;;;;;;;;;;;;;20.68;30.60;97852.84;4974333;28;937;-77
2023/10/29 04:25:48;;;;;;;;;;;;;;;20.88;30.45;97855.53;4967138;28;975;-78
2023/10/29 04:28:14;;;;;;;;;;;;;;;21.21;29.82;97871.22;5013741;28;973;-78
2023/10/29 04:30:39;;;;;;;;;;;;;;;20.96;30.20;97873.94;5014150;28;925;-78
2023/10/29 04:33:05;;;;;;;;;;;;;;;20.92;30.33;97871.19;4997605;28;911;-78
2023/10/29 04:35:30;;;;;;;;;;;;;;;20.88;30.06;97881.81;5018832;28;1918;-78
2023/10/29 04:37:56;;;;;;;;;;;;;;;20.98;30.20;97882.75;5004368;28;970;-77
2023/10/29 04:40:21;;;;;;;;;;;;;;;20.84;30.13;97883.94;5038260;28;910;-78
2023/10/29 04:42:47;;;;;;;;;;;;;;;20.90;30.28;97882.16;5004347;28;988;-78
2023/10/29 04:45:12;;;;;;;;;;;;;;;20.91;30.35;97885.78;5055801;28;1256;-78
2023/10/29 04:47:38;;;;;;;;;;;;;;;20.96;30.04;97885.25;5038048;28;943;-77
2023/10/29 04:50:05;;;;;;;;;;;;;;;20.85;30.36;97890.38;5037944;28;1106;-77
2023/10/29 04:52:30;;;;;;;;;;;;;;;20.55;30.99;97889.47;5055886;28;825;-77
2023/10/29 04:54:56;;;;;;;;;;;;;;;20.69;30.48;97889.16;5055373;28;1984;-77
2023/10/29 04:57:21;;;;;;;;;;;;;;;20.76;30.68;97894.63;5055425;28;864;-77
2023/10/29 04:59:50;;;;;;;;;;;;;;;20.91;30.16;97899.91;5055710;28;897;-77
2023/10/29 05:02:18;;;;;;;;;;;;;;;20.98;30.38;97902.56;5038208;28;1116;-78
2023/10/29 05:04:44;;;;;;;;;;;;;;;20.88;30.51;97907.25;5000538;28;1208;-78
2023/10/29 05:07:09;;;;;;;;;;;;;;;20.84;30.46;97911.41;5000605;28;1007;-78
2023/10/29 05:09:35;;;;;;;;;;;;;;;20.99;30.16;97919.09;4977681;28;1250;-78
2023/10/29 05:12:00;;;;;;;;;;;;;;;20.94;30.19;97921.66;4977851;28;956;-77
2023/10/29 05:14:26;;;;;;;;;;;;;;;20.97;30.19;97929.25;4961689;28;1981;-77
2023/10/29 05:16:52;;;;;;;;;;;;;;;20.84;30.35;97928.38;4994037;28;1045;-78
2023/10/29 05:19:17;;;;;;;;;;;;;;;21.03;30.26;97936.75;4961750;28;1156;-78
2023/10/29 05:21:43;;;;;;;;;;;;;;;21.15;29.89;97932.44;4953346;28;1511;-77
2023/10/29 05:24:09;;;;;;;;;;;;;;;20.99;30.37;97940.94;4935673;29;1709;-78
2023/10/29 05:26:36;;;;;;;;;;;;;;;20.90;30.23;97947.19;4945542;29;1888;-78
2023/10/29 05:29:05;;;;;;;;;;;;;;;20.62;30.61;97954.31;4936928;29;1842;-77
2023/10/29 05:31:31;;;;;;;;;;;;;;;20.72;30.72;97956.09;4937721;29;1563;-78
2023/10/29 05:33:57;;;;;;;;;;;;;;;20.88;30.39;97965.84;4915218;28;1907;-78
2023/10/29 05:36:22;;;;;;;;;;;;;;;20.87;30.37;97962.22;4970401;28;1513;-77
2023/10/29 05:38:48;;;;;;;;;;;;;;;21.01;30.29;97961.09;4944753;29;1567;-77
2023/10/29 05:41:13;;;;;;;;;;;;;;;20.91;30.63;97967.78;4940281;29;1422;-78
2023/10/29 05:43:39;;;;;;;;;;;;;;;21.07;30.35;97976.28;4938822;29;1470;-78
2023/10/29 05:46:04;;;;;;;;;;;;;;;21.15;30.24;97977.72;4940895;29;1564;-78
2023/10/29 05:48:30;;;;;;;;;;;;;;;20.98;30.61;97981.75;4919443;29;1507;-78
2023/10/29 05:50:55;;;;;;;;;;;;;;;21.20;29.96;97982.84;4919595;29;1573;-78
2023/10/29 05:53:21;;;;;;;;;;;;;;;20.87;30.75;97989.69;4881898;29;1910;-78
2023/10/29 05:55:46;;;;;;;;;;;;;;;20.69;30.97;97990.94;4882219;29;1563;-78
2023/10/29 05:58:12;;;;;;;;;;;;;;;20.88;30.89;97991.28;4900300;29;1412;-78
2023/10/29 06:00:37;;;;;;;;;;;;;;;20.95;30.73;97997.59;4900580;29;1298;-78
2023/10/29 06:03:03;;;;;;;;;;;;;;;20.97;30.42;97994.31;4900538;29;1534;-78
2023/10/29 06:05:29;;;;;;;;;;;;;;;20.94;30.57;98006.53;4900557;29;1580;-78
2023/10/29 06:07:54;;;;;;;;;;;;;;;21.05;30.51;98005.03;4899537;29;1587;-78
2023/10/29 06:10:20;;;;;;;;;;;;;;;21.00;30.40;97999.09;4941564;29;1436;-77
2023/10/29 06:12:45;;;;;;;;;;;;;;;20.91;30.92;98007.38;4957738;29;1589;-78
2023/10/29 06:15:11;;;;;;;;;;;;;;;20.86;30.73;98008.72;4957072;29;1989;-78
2023/10/29 06:17:36;;;;;;;;;;;;;;;20.92;31.08;98015.44;4957717;29;1418;-78
2023/10/29 06:20:03;;;;;;;;;;;;;;;20.81;31.11;98015.69;4957090;28;1564;-77
2023/10/29 06:22:28;;;;;;;;;;;;;;;21.06;30.63;98019.97;4976802;28;1433;-78
2023/10/29 06:24:54;;;;;;;;;;;;;;;20.85;30.98;98009.16;4990868;28;1470;-78
2023/10/29 06:27:19;;;;;;;;;;;;;;;21.07;30.62;98011.03;4979641;28;1577;-78
2023/10/29 06:29:45;;;;;;;;;;;;;;;21.03;30.63;98020.81;4996011;28;1417;-78
2023/10/29 06:32:10;;;;;;;;;;;;;;;20.84;31.09;98024.53;4996044;28;1594;-78
2023/10/29 06:34:36;;;;;;;;;;;;;;;20.89;30.95;98021.97;4997252;28;1989;-77
2023/10/29 06:37:01;;;;;;;;;;;;;;;21.02;30.83;98024.91;5015285;28;1458;-78
2023/10/29 06:39:27;;;;;;;;;;;;;;;21.02;30.99;98019.25;4982970;28;1591;-78
2023/10/29 06:41:52;;;;;;;;;;;;;;;20.94;30.91;98023.50;5015599;28;1278;-78
2023/10/29 06:44:18;;;;;;;;;;;;;;;21.45;31.14;98023.88;4999285;28;1542;-78
2023/10/29 06:46:43;;;;;;;;;;;;;;;22.26;31.12;98020.88;4998250;28;1848;-78
2023/10/29 06:49:09;;;;;;;;;;;;;;;21.73;31.33;98025.97;5015236;28;1254;-77
2023/10/29 06:51:34;;;;;;;;;;;;;;;21.85;31.20;98024.44;4999214;28;1577;-78
2023/10/29 06:54:00;;;;;;;;;;;;;;;21.44;31.49;98028.72;4998755;28;1968;-78
2023/10/29 06:56:26;;;;;;;;;;;;;;;21.14;31.72;98023.41;5045976;28;1463;-78
2023/10/29 06:58:51;;;;;;;;;;;;;;;21.10;31.58;98040.47;5056942;28;1396;-78
2023/10/29 07:01:17;;;;;;;;;;;;;;;20.79;31.75;98037.97;4998490;28;1457;-78
2023/10/29 07:03:42;;;;;;;;;;;;;;;21.05;31.36;98041.78;4998781;28;1472;-78
2023/10/29 07:06:08;;;;;;;;;;;;;;;21.28;30.73;98049.31;5014559;28;1542;-78
2023/10/29 07:08:34;;;;;;;;;;;;;;;21.15;31.00;98039.94;4998246;28;1476;-77
2023/10/29 07:11:00;;;;;;;;;;;;;;;21.19;30.50;98043.50;4998457;28;1381;-78
2023/10/29 07:13:26;;;;;;;;;;;;;;;21.41;30.01;98043.78;4998450;28;2003;-78
2023/10/29 07:15:52;;;;;;;;;;;;;;;21.25;30.31;98038.91;4998487;28;1433;-78
2023/10/29 07:18:17;;;;;;;;;;;;;;;21.06;30.54;98042.59;4981940;28;1524;-77
2023/10/29 07:20:43;;;;;;;;;;;;;;;20.99;30.20;98048.44;5014654;28;1376;-78
2023/10/29 07:23:09;;;;;;;;;;;;;;;20.93;30.36;98047.34;4998369;28;1429;-78
2023/10/29 07:25:34;;;;;;;;;;;;;;;20.78;30.33;98044.06;4998533;28;1393;-78
2023/10/29 07:28:00;;;;;;;;;;;;;;;21.04;29.96;98045.88;4997987;28;1573;-78
2023/10/29 07:30:25;;;;;;;;;;;;;;;21.17;29.64;98059.31;5014475;28;1670;-78
2023/10/29 07:32:51;;;;;;;;;;;;;;;20.99;29.75;98054.09;5028941;28;1518;-78
2023/10/29 07:35:16;;;;;;;;;;;;;;;20.76;30.28;98052.16;5017711;28;1982;-78
2023/10/29 07:37:42;;;;;;;;;;;;;;;20.92;29.78;98054.22;5001089;28;1361;-78
2023/10/29 07:40:08;;;;;;;;;;;;;;;21.16;29.68;98063.38;5016856;28;1425;-78
2023/10/29 07:42:33;;;;;;;;;;;;;;;20.91;29.79;98064.75;5005690;28;1480;-77
2023/10/29 07:44:59;;;;;;;;;;;;;;;20.90;29.82;98063.16;5013779;28;1512;-78
2023/10/29 07:47:24;;;;;;;;;;;;;;;20.85;29.78;98069.34;4998177;28;1603;-78
2023/10/29 07:49:50;;;;;;;;;;;;;;;20.90;29.35;98062.38;4994052;28;1649;-78
2023/10/29 07:52:15;;;;;;;;;;;;;;;20.87;29.60;98063.22;4978797;28;1318;-78
2023/10/29 07:54:42;;;;;;;;;;;;;;;20.82;29.88;98070.22;4978502;28;1906;-78
2023/10/29 07:57:07;;;;;;;;;;;;;;;20.80;29.68;98073.47;4977934;28;1535;-77
2023/10/29 07:59:34;;;;;;;;;;;;;;;21.05;29.06;98075.75;4977825;28;1587;-78
2023/10/29 08:01:59;;;;;;;;;;;;;;;20.89;29.22;98072.09;4978139;28;1441;-77
2023/10/29 08:04:31;;;;;;;;;;;;;;;20.96;29.12;98067.06;4955428;28;1418;-78
2023/10/29 08:06:56;;;;;;;;;;;;;;;20.92;29.43;98072.00;4939785;28;1351;-78
2023/10/29 08:09:22;;;;;;;;;;;;;;;20.71;29.48;98076.09;4939400;28;1574;-78
2023/10/29 08:11:48;;;;;;;;;;;;;;;20.68;29.57;98079.81;4955576;28;1507;-78
2023/10/29 08:14:13;;;;;;;;;;;;;;;20.72;29.40;98076.88;4955793;28;1915;-78
2023/10/29 08:16:39;;;;;;;;;;;;;;;20.71;29.32;98078.94;4969224;28;1542;-77
2023/10/29 08:19:06;;;;;;;;;;;;;;;20.68;29.50;98085.47;4993982;28;1548;-78
2023/10/29 08:21:31;;;;;;;;;;;;;;;20.60;29.44;98089.66;4993994;28;1318;-78
2023/10/29 08:23:57;;;;;;;;;;;;;;;20.69;29.30;98092.72;4994308;28;1556;-78
2023/10/29 08:26:24;;;;;;;;;;;;;;;20.84;29.10;98095.25;4977687;28;1537;-78
2023/10/29 08:28:50;;;;;;;;;;;;;;;21.26;28.51;98097.09;4977962;28;1635;-77
2023/10/29 08:31:15;;;;;;;;;;;;;;;21.12;28.58;98097.41;4977753;28;1441;-78
2023/10/29 08:33:41;;;;;;;;;;;;;;;20.92;29.02;98099.50;4977980;28;1914;-78
2023/10/29 08:36:07;;;;;;;;;;;;;;;20.72;29.20;98097.47;5025811;28;1321;-78
2023/10/29 08:38:32;;;;;;;;;;;;;;;21.07;28.58;98107.22;5016597;28;1511;-78
2023/10/29 08:40:58;;;;;;;;;;;;;;;20.79;29.23;98107.84;5033685;28;1408;-78
2023/10/29 08:43:24;;;;;;;;;;;;;;;21.00;29.04;98095.28;5016680;28;1443;-78
2023/10/29 08:45:49;;;;;;;;;;;;;;;21.03;28.60;98100.03;5017107;28;1377;-78
2023/10/29 08:48:15;;;;;;;;;;;;;;;20.90;28.90;98104.78;5033077;28;1395;-78
2023/10/29 08:50:40;;;;;;;;;;;;;;;20.60;29.17;98100.97;5016865;28;1480;-78
2023/10/29 08:53:06;;;;;;;;;;;;;;;20.93;28.64;98103.91;4997303;28;1286;-78
2023/10/29 08:55:33;;;;;;;;;;;;;;;20.66;29.12;98109.75;5013300;28;1981;-78
2023/10/29 08:57:59;;;;;;;;;;;;;;;20.90;28.79;98102.75;4976341;28;1533;-77
2023/10/29 09:00:24;;;;;;;;;;;;;;;20.76;29.00;98108.72;4976472;28;1511;-78
2023/10/29 09:02:52;;;;;;;;;;;;;;;20.79;28.98;98103.00;4960591;28;1296;-78
2023/10/29 09:05:18;;;;;;;;;;;;;;;20.82;28.74;98101.31;4943577;28;1668;-78
2023/10/29 09:07:43;;;;;;;;;;;;;;;20.84;29.12;98103.72;4963693;28;1543;-78
2023/10/29 09:10:09;;;;;;;;;;;;;;;20.90;28.74;98102.75;4961173;28;1375;-78
2023/10/29 09:12:34;;;;;;;;;;;;;;;20.55;29.40;98098.66;4986325;28;1607;-78
2023/10/29 09:15:01;;;;;;;;;;;;;;;20.91;28.87;98101.53;4957498;28;1981;-78
2023/10/29 09:17:27;;;;;;;;;;;;;;;21.07;28.76;98106.41;4976393;28;1576;-78
2023/10/29 09:19:52;;;;;;;;;;;;;;;20.97;28.90;98098.97;4959396;28;1498;-78
2023/10/29 09:22:18;;;;;;;;;;;;;;;20.77;28.88;98104.66;4964908;28;1595;-78
2023/10/29 09:24:44;;;;;;;;;;;;;;;20.84;28.81;98098.88;4960607;28;1374;-77
2023/10/29 09:27:09;;;;;;;;;;;;;;;20.94;28.84;98095.00;4958759;28;1556;-78
2023/10/29 09:29:36;;;;;;;;;;;;;;;20.87;28.67;98097.97;4990783;28;1389;-78
2023/10/29 09:32:04;;;;;;;;;;;;;;;21.14;28.34;98100.63;5016990;28;1412;-78
2023/10/29 09:34:32;;;;;;;;;;;;;;;21.06;28.86;98091.47;4981310;28;1903;-77
2023/10/29 09:36:57;;;;;;;;;;;;;;;21.19;28.17;98091.59;4982537;28;1379;-77
2023/10/29 09:39:23;;;;;;;;;;;;;;;21.29;28.10;98093.34;5000517;28;979;-78
2023/10/29 09:41:48;;;;;;;;;;;;;;;20.98;28.93;98089.25;5000878;28;883;-78
2023/10/29 09:44:17;;;;;;;;;;;;;;;20.98;28.56;98092.06;4984358;28;1115;-78
2023/10/29 09:46:43;;;;;;;;;;;;;;;21.00;28.72;98089.63;5017169;28;990;-78
2023/10/29 09:49:08;;;;;;;;;;;;;;;20.90;28.87;98085.00;5040771;28;1205;-78
2023/10/29 09:51:34;;;;;;;;;;;;;;;20.85;29.16;98077.03;5024785;28;1063;-78
2023/10/29 09:54:00;;;;;;;;;;;;;;;20.69;29.42;98078.56;5041265;28;1923;-78
2023/10/29 09:56:26;;;;;;;;;;;;;;;20.60;29.21;98081.19;5041194;28;894;-78
2023/10/29 09:58:52;;;;;;;;;;;;;;;20.57;29.40;98082.06;5024455;28;1151;-78
2023/10/29 10:01:17;;;;;;;;;;;;;;;20.73;29.05;98075.69;5040794;28;894;-78
2023/10/29 10:03:43;;;;;;;;;;;;;;;20.69;29.25;98086.25;5041177;28;951;-78
2023/10/29 10:06:08;;;;;;;;;;;;;;;20.87;29.06;98094.34;5040175;28;1554;-78
2023/10/29 10:08:34;;;;;;;;;;;;;;;20.94;28.82;98091.38;4995587;28;1688;-78
2023/10/29 10:10:59;;;;;;;;;;;;;;;20.98;28.94;98092.06;5023779;28;1369;-78
2023/10/29 10:13:34;;;;;;;;;;;;;;;20.64;29.40;98096.06;5022691;28;1983;-78
2023/10/29 10:16:21;;;;;;;;;;;;;;;20.92;29.00;98088.97;5022835;28;1534;-78
2023/10/29 10:18:50;;;;;;;;;;;;;;;21.16;28.53;98092.47;5040258;28;1463;-78
2023/10/29 10:21:16;;;;;;;;;;;;;;;21.15;28.68;98090.88;5040047;28;1471;-78
2023/10/29 10:23:51;;;;;;;;;;;;;;;20.84;28.85;98089.59;5057741;28;1260;-78
2023/10/29 10:26:30;;;;;;;;;;;;;;;20.94;28.83;98089.34;5030608;28;1377;-77
2023/10/29 10:28:56;;;;;;;;;;;;;;;20.94;28.79;98091.38;5001252;28;1588;-78
2023/10/29 10:31:22;;;;;;;;;;;;;;;20.84;29.16;98089.59;5040075;28;1540;-78
2023/10/29 10:33:48;;;;;;;;;;;;;;;21.06;28.77;98087.84;5040291;28;1902;-78
2023/10/29 10:36:14;;;;;;;;;;;;;;;21.05;28.55;98086.25;5023305;28;1592;-78
2023/10/29 10:38:58;;;;;;;;;;;;;;;20.93;28.73;98095.41;5039507;28;1392;-78
2023/10/29 10:41:23;;;;;;;;;;;;;;;20.69;29.38;98087.06;5031136;28;1451;-78
2023/10/29 10:44:00;;;;;;;;;;;;;;;21.03;28.68;98083.06;5057405;28;1569;-78
2023/10/29 10:46:26;;;;;;;;;;;;;;;21.17;28.54;98079.91;5023011;28;1267;-78
2023/10/29 10:48:51;;;;;;;;;;;;;;;20.94;28.75;98085.72;5023169;28;1500;-78
2023/10/29 10:51:17;;;;;;;;;;;;;;;20.92;28.75;98079.69;5039570;28;1313;-78
2023/10/29 10:53:42;;;;;;;;;;;;;;;20.71;29.38;98081.75;5023294;28;1918;-78
2023/10/29 10:56:08;;;;;;;;;;;;;;;20.59;29.31;98088.09;5039330;28;1592;-77
2023/10/29 10:58:34;;;;;;;;;;;;;;;20.72;29.29;98082.53;5022550;28;1396;-78
2023/10/29 11:01:00;;;;;;;;;;;;;;;20.67;29.26;98081.03;5039646;28;1552;-78
2023/10/29 11:03:25;;;;;;;;;;;;;;;20.81;29.10;98082.75;5023363;28;1479;-77
2023/10/29 11:05:52;;;;;;;;;;;;;;;20.90;28.77;98090.66;5023077;28;1555;-78
2023/10/29 11:08:18;;;;;;;;;;;;;;;20.79;29.10;98080.38;5039186;28;1509;-78
2023/10/29 11:10:46;;;;;;;;;;;;;;;20.94;28.75;98080.06;5038870;28;1551;-78
2023/10/29 11:13:17;;;;;;;;;;;;;;;20.67;29.09;98078.19;5056674;28;1491;-77
2023/10/29 11:15:47;;;;;;;;;;;;;;;20.96;28.89;98077.59;5029258;28;1967;-77
2023/10/29 11:18:12;;;;;;;;;;;;;;;20.70;29.12;98079.38;5038788;28;1544;-78
2023/10/29 11:20:47;;;;;;;;;;;;;;;20.89;28.98;98083.41;5022478;28;1480;-78
2023/10/29 11:23:13;;;;;;;;;;;;;;;20.97;28.84;98079.16;5028878;28;1368;-77
2023/10/29 11:25:39;;;;;;;;;;;;;;;20.79;28.81;98086.03;5022547;28;1435;-78
2023/10/29 11:28:05;;;;;;;;;;;;;;;20.93;28.75;98078.44;5022545;28;1432;-78
2023/10/29 11:30:31;;;;;;;;;;;;;;;20.79;28.91;98074.72;5039119;28;1531;-78
2023/10/29 11:33:05;;;;;;;;;;;;;;;20.97;28.92;98067.84;5038108;28;1527;-77
2023/10/29 11:35:31;;;;;;;;;;;;;;;20.64;29.01;98072.63;5056827;28;1991;-78
2023/10/29 11:37:57;;;;;;;;;;;;;;;20.89;28.95;98077.75;5022327;28;1533;-78
2023/10/29 11:40:22;;;;;;;;;;;;;;;21.09;28.51;98075.66;5022265;28;1408;-78
2023/10/29 11:42:48;;;;;;;;;;;;;;;20.95;28.76;98073.16;5038978;28;1435;-78
2023/10/29 11:45:27;;;;;;;;;;;;;;;21.12;28.48;98066.28;5038339;28;1492;-78
2023/10/29 11:48:17;;;;;;;;;;;;;;;21.11;28.30;98067.53;5038578;28;1476;-78
2023/10/29 11:51:02;;;;;;;;;;;;;;;20.70;28.83;98083.00;5055877;28;1559;-78
2023/10/29 11:53:28;;;;;;;;;;;;;;;20.73;28.91;98064.38;5048406;28;1906;-78
2023/10/29 11:55:57;;;;;;;;;;;;;;;20.87;28.81;98068.88;5022218;28;1452;-78
2023/10/29 11:58:23;;;;;;;;;;;;;;;20.65;28.97;98072.19;5022070;28;1521;-77
2023/10/29 12:00:48;;;;;;;;;;;;;;;20.45;29.34;98065.72;5038528;28;1460;-78
2023/10/29 12:03:20;;;;;;;;;;;;;;;20.69;29.26;98069.31;5038008;28;1420;-78
2023/10/29 12:05:49;;;;;;;;;;;;;;;20.74;28.86;98066.75;5055661;28;1471;-78
2023/10/29 12:08:14;;;;;;;;;;;;;;;20.73;29.07;98065.16;5038304;28;1439;-78
2023/10/29 12:10:46;;;;;;;;;;;;;;;20.81;29.04;98072.25;4997015;28;1499;-78
2023/10/29 12:13:12;;;;;;;;;;;;;;;20.45;29.71;98065.72;4997571;28;1560;-78
2023/10/29 12:15:39;;;;;;;;;;;;;;;20.52;29.61;98065.59;5014056;28;1966;-78
2023/10/29 12:18:04;;;;;;;;;;;;;;;20.83;28.87;98066.16;4997232;28;1535;-78
2023/10/29 12:20:30;;;;;;;;;;;;;;;20.65;29.29;98063.72;5013636;28;1302;-78
2023/10/29 12:22:57;;;;;;;;;;;;;;;20.87;28.66;98074.53;4997347;28;1421;-78
2023/10/29 12:25:23;;;;;;;;;;;;;;;20.66;29.14;98079.44;5013362;28;1503;-77
2023/10/29 12:27:49;;;;;;;;;;;;;;;20.68;29.23;98079.81;5014045;28;1561;-78
2023/10/29 12:30:34;;;;;;;;;;;;;;;20.85;28.68;98082.69;4996947;28;1428;-78
2023/10/29 12:33:19;;;;;;;;;;;;;;;20.95;28.68;98081.66;4997364;28;2023;-77
2023/10/29 12:35:45;;;;;;;;;;;;;;;20.93;28.55;98078.44;4997036;28;1902;-78
2023/10/29 12:38:11;;;;;;;;;;;;;;;20.89;29.02;98086.25;5013856;28;1667;-78
2023/10/29 12:40:37;;;;;;;;;;;;;;;20.90;28.52;98073.69;5016385;28;1420;-78
2023/10/29 12:43:02;;;;;;;;;;;;;;;20.86;28.60;98084.28;5037744;28;1843;-77
2023/10/29 12:45:35;;;;;;;;;;;;;;;20.84;28.93;98081.09;5020221;28;1531;-78
2023/10/29 12:48:08;;;;;;;;;;;;;;;20.94;28.43;98083.69;5038241;28;1543;-78
2023/10/29 12:50:52;;;;;;;;;;;;;;;20.95;28.64;98081.66;4996615;28;1547;-78
2023/10/29 12:53:27;;;;;;;;;;;;;;;20.68;28.92;98091.13;4997441;28;1399;-78
2023/10/29 12:55:53;;;;;;;;;;;;;;;20.74;29.23;98083.72;4977300;28;1910;-78